Time;durP1;ratioP1;P1;durP2;ratioP2;P2;SDS_P1;SDS_P2;PMS_P1;PMS_P2;Temp;Humidity;BMP_temperature;BMP_pressure;BME280_temperature;BME280_humidity;BME280_pressure;Samples;Min_cycle;Max_cycle;Signal;HPM_P1;HPM_P2
2022/07/01 00:01:49;;;;;;;60.10;3.10;;;;;;;;;;5072199;28;21070;-68
2022/07/01 00:04:16;;;;;;;59.20;3.00;;;;;;;;;;5071828;28;20911;-67
2022/07/01 00:06:45;;;;;;;60.67;2.87;;;;;;;;;;5070566;28;20461;-69
2022/07/01 00:09:12;;;;;;;58.77;2.80;;;;;;;;;;5071704;28;20447;-68
2022/07/01 00:11:39;;;;;;;58.93;2.60;;;;;;;;;;5072044;28;20558;-69
2022/07/01 00:14:08;;;;;;;64.30;3.50;;;;;;;;;;5071776;28;20983;-68
2022/07/01 00:16:36;;;;;;;59.20;2.80;;;;;;;;;;5071899;28;20469;-68
2022/07/01 00:19:05;;;;;;;58.97;2.77;;;;;;;;;;5071454;28;20451;-68
2022/07/01 00:21:32;;;;;;;58.87;3.20;;;;;;;;;;5071716;28;20451;-69
2022/07/01 00:23:59;;;;;;;58.77;3.00;;;;;;;;;;5071541;28;20513;-68
2022/07/01 00:26:26;;;;;;;60.47;2.90;;;;;;;;;;5071947;28;20465;-68
2022/07/01 00:28:55;;;;;;;58.90;2.87;;;;;;;;;;5069518;28;20462;-68
2022/07/01 00:31:22;;;;;;;60.03;3.10;;;;;;;;;;5071578;28;20521;-68
2022/07/01 00:33:50;;;;;;;59.50;3.10;;;;;;;;;;5071392;28;20469;-68
2022/07/01 00:36:19;;;;;;;58.97;2.83;;;;;;;;;;5071812;28;20443;-68
2022/07/01 00:38:46;;;;;;;59.27;2.87;;;;;;;;;;5071372;28;20482;-68
2022/07/01 00:41:16;;;;;;;58.97;3.20;;;;;;;;;;5071592;28;20845;-68
2022/07/01 00:43:44;;;;;;;59.07;2.97;;;;;;;;;;5071347;28;20537;-68
2022/07/01 00:46:12;;;;;;;60.13;2.83;;;;;;;;;;5071404;28;20545;-68
2022/07/01 00:48:43;;;;;;;59.40;2.90;;;;;;;;;;5071623;28;20451;-68
2022/07/01 00:51:10;;;;;;;58.77;3.00;;;;;;;;;;5071354;28;20478;-68
2022/07/01 00:53:39;;;;;;;60.57;2.80;;;;;;;;;;5071307;28;20478;-69
2022/07/01 00:56:06;;;;;;;59.37;3.07;;;;;;;;;;5071476;28;20454;-68
2022/07/01 00:58:34;;;;;;;59.37;2.77;;;;;;;;;;5070995;28;20446;-68
2022/07/01 01:01:01;;;;;;;59.37;3.10;;;;;;;;;;5072952;28;20446;-69
2022/07/01 01:03:28;;;;;;;58.83;2.90;;;;;;;;;;5072816;28;20991;-68
2022/07/01 01:05:56;;;;;;;60.07;3.40;;;;;;;;;;5075449;28;20943;-68
2022/07/01 01:08:25;;;;;;;68.00;3.30;;;;;;;;;;5075171;28;20453;-68
2022/07/01 01:10:54;;;;;;;58.87;2.83;;;;;;;;;;5075195;28;20479;-68
2022/07/01 01:13:21;;;;;;;58.93;2.90;;;;;;;;;;5074682;28;20980;-68
2022/07/01 01:15:49;;;;;;;59.07;3.07;;;;;;;;;;5075210;28;20532;-68
2022/07/01 01:18:16;;;;;;;59.00;3.40;;;;;;;;;;5059209;28;20463;-68
2022/07/01 01:20:48;;;;;;;59.60;3.13;;;;;;;;;;5055135;28;20447;-69
2022/07/01 01:23:16;;;;;;;58.77;2.80;;;;;;;;;;5054534;28;20553;-68
2022/07/01 01:25:43;;;;;;;59.00;2.73;;;;;;;;;;5055136;28;20884;-68
2022/07/01 01:28:10;;;;;;;59.10;2.97;;;;;;;;;;5055123;28;20450;-68
2022/07/01 01:30:37;;;;;;;59.37;3.10;;;;;;;;;;5054968;28;20857;-69
2022/07/01 01:33:07;;;;;;;58.97;2.80;;;;;;;;;;5054547;28;20471;-69
2022/07/01 01:35:35;;;;;;;59.20;3.13;;;;;;;;;;5054720;28;20462;-71
2022/07/01 01:38:04;;;;;;;59.07;3.07;;;;;;;;;;5072212;28;20454;-69
2022/07/01 01:40:31;;;;;;;59.40;2.90;;;;;;;;;;5074925;28;20472;-68
2022/07/01 01:43:01;;;;;;;58.57;2.73;;;;;;;;;;5074766;28;20469;-69
2022/07/01 01:45:30;;;;;;;59.67;3.07;;;;;;;;;;5074882;28;20461;-68
2022/07/01 01:47:57;;;;;;;58.83;2.70;;;;;;;;;;5074493;28;20446;-68
2022/07/01 01:50:25;;;;;;;58.83;2.70;;;;;;;;;;5074376;28;20870;-68
2022/07/01 01:52:53;;;;;;;58.87;2.47;;;;;;;;;;5074106;28;20549;-68
2022/07/01 01:55:25;;;;;;;59.07;2.70;;;;;;;;;;5074645;28;20888;-68
2022/07/01 01:57:52;;;;;;;58.87;2.90;;;;;;;;;;5074227;28;20459;-68
2022/07/01 02:00:19;;;;;;;58.87;2.63;;;;;;;;;;5074391;28;20450;-68
2022/07/01 02:02:48;;;;;;;58.87;2.80;;;;;;;;;;5074056;28;20478;-68
2022/07/01 02:05:16;;;;;;;59.53;3.17;;;;;;;;;;5074479;28;20456;-68
2022/07/01 02:07:43;;;;;;;58.97;2.90;;;;;;;;;;5059941;28;20456;-69
2022/07/01 02:10:10;;;;;;;59.30;3.00;;;;;;;;;;5067744;28;21007;-68
2022/07/01 02:12:39;;;;;;;59.10;3.10;;;;;;;;;;5059372;28;20562;-67
2022/07/01 02:15:08;;;;;;;60.27;2.80;;;;;;;;;;5054008;28;20461;-68
2022/07/01 02:17:35;;;;;;;59.30;2.93;;;;;;;;;;5053663;28;20488;-68
2022/07/01 02:20:02;;;;;;;58.87;2.80;;;;;;;;;;5052757;28;20854;-67
2022/07/01 02:22:32;;;;;;;58.87;2.67;;;;;;;;;;5053811;28;20541;-67
2022/07/01 02:25:00;;;;;;;60.80;3.30;;;;;;;;;;5053911;28;20501;-68
2022/07/01 02:27:29;;;;;;;59.10;2.90;;;;;;;;;;5052790;28;20495;-67
2022/07/01 02:29:57;;;;;;;59.17;2.90;;;;;;;;;;5053530;28;20458;-68
2022/07/01 02:32:27;;;;;;;58.93;3.00;;;;;;;;;;5053823;28;20463;-67
2022/07/01 02:34:54;;;;;;;58.87;3.00;;;;;;;;;;5053940;28;20493;-67
2022/07/01 02:37:21;;;;;;;59.07;3.00;;;;;;;;;;5053301;28;20981;-67
2022/07/01 02:39:49;;;;;;;58.93;2.90;;;;;;;;;;5053726;28;20948;-67
2022/07/01 02:42:25;;;;;;;59.10;2.90;;;;;;;;;;5054411;28;20447;-67
2022/07/01 02:44:52;;;;;;;60.33;3.20;;;;;;;;;;5072121;28;20822;-67
2022/07/01 02:47:26;;;;;;;59.07;2.97;;;;;;;;;;5073112;28;20443;-68
2022/07/01 02:49:58;;;;;;;58.97;2.80;;;;;;;;;;5073711;28;20457;-67
2022/07/01 02:52:26;;;;;;;60.07;2.90;;;;;;;;;;5071962;28;21054;-67
2022/07/01 02:54:54;;;;;;;59.53;3.30;;;;;;;;;;5073020;28;20460;-67
2022/07/01 02:57:21;;;;;;;59.17;2.90;;;;;;;;;;5072990;28;20446;-67
2022/07/01 02:59:50;;;;;;;59.10;3.00;;;;;;;;;;5073498;28;20446;-68
2022/07/01 03:02:18;;;;;;;59.50;2.80;;;;;;;;;;5073276;28;20482;-67
2022/07/01 03:04:50;;;;;;;58.97;2.83;;;;;;;;;;5073047;28;20455;-67
2022/07/01 03:07:17;;;;;;;59.10;2.90;;;;;;;;;;5072936;28;20530;-67
2022/07/01 03:09:45;;;;;;;58.97;2.70;;;;;;;;;;5072971;28;20863;-67
2022/07/01 03:14:56;;;;;;;59.27;3.10;;;;;;;;;;5069119;28;20773;-67
2022/07/01 03:17:24;;;;;;;58.83;3.00;;;;;;;;;;5072655;28;20443;-67
2022/07/01 03:19:53;;;;;;;58.87;2.80;;;;;;;;;;5072476;28;20447;-67
2022/07/01 03:22:21;;;;;;;59.07;2.90;;;;;;;;;;5072843;28;20870;-67
2022/07/01 03:24:48;;;;;;;58.97;3.07;;;;;;;;;;5071875;28;20460;-67
2022/07/01 03:27:15;;;;;;;59.07;2.90;;;;;;;;;;5072517;28;20530;-67
2022/07/01 03:29:43;;;;;;;58.47;2.70;;;;;;;;;;5072964;28;20480;-67
2022/07/01 03:32:11;;;;;;;58.63;2.90;;;;;;;;;;5072445;28;21002;-67
2022/07/01 03:34:39;;;;;;;59.60;3.00;;;;;;;;;;5072299;28;20480;-67
2022/07/01 03:37:08;;;;;;;60.57;2.90;;;;;;;;;;5072606;28;20450;-67
2022/07/01 03:39:37;;;;;;;58.87;3.00;;;;;;;;;;5072676;28;20458;-67
2022/07/01 03:42:05;;;;;;;58.83;2.80;;;;;;;;;;5072506;28;20475;-67
2022/07/01 03:44:36;;;;;;;58.97;3.07;;;;;;;;;;5072199;28;20475;-67
2022/07/01 03:47:07;;;;;;;59.60;3.10;;;;;;;;;;5071625;28;20481;-67
2022/07/01 03:49:34;;;;;;;59.27;3.03;;;;;;;;;;5071991;28;20450;-67
2022/07/01 03:52:02;;;;;;;59.07;3.03;;;;;;;;;;5072338;28;20568;-67
2022/07/01 03:54:31;;;;;;;61.93;3.70;;;;;;;;;;5072645;28;20531;-67
2022/07/01 03:56:59;;;;;;;59.73;3.40;;;;;;;;;;5072227;28;20449;-67
2022/07/01 03:59:26;;;;;;;59.10;3.20;;;;;;;;;;5072056;28;20516;-67
2022/07/01 04:01:56;;;;;;;59.30;2.90;;;;;;;;;;5071005;28;20526;-67
2022/07/01 04:04:24;;;;;;;59.17;3.20;;;;;;;;;;5072245;28;20467;-66
2022/07/01 04:06:51;;;;;;;59.17;2.87;;;;;;;;;;5072326;28;20483;-68
2022/07/01 04:09:18;;;;;;;59.37;3.07;;;;;;;;;;5072014;28;20447;-67
2022/07/01 04:11:50;;;;;;;58.83;2.83;;;;;;;;;;5072143;28;20482;-66
2022/07/01 04:14:20;;;;;;;58.87;2.80;;;;;;;;;;5072163;28;20485;-67
2022/07/01 04:16:47;;;;;;;59.27;3.00;;;;;;;;;;5070870;28;20504;-67
2022/07/01 04:19:16;;;;;;;59.00;3.10;;;;;;;;;;5071849;28;20538;-67
2022/07/01 04:24:32;;;;;;;59.37;3.03;;;;;;;;;;5071826;28;20446;-68
2022/07/01 04:27:01;;;;;;;59.40;3.10;;;;;;;;;;5072201;28;20450;-68
2022/07/01 04:29:29;;;;;;;59.23;3.00;;;;;;;;;;5071913;28;20534;-68
2022/07/01 04:31:56;;;;;;;58.97;2.87;;;;;;;;;;5071927;28;20928;-68
2022/07/01 04:34:24;;;;;;;58.77;2.97;;;;;;;;;;5071712;28;20470;-68
2022/07/01 04:36:51;;;;;;;58.70;2.93;;;;;;;;;;5071523;28;20453;-68
2022/07/01 04:39:18;;;;;;;58.87;3.10;;;;;;;;;;5072021;28;20817;-67
2022/07/01 04:42:01;;;;;;;59.60;3.50;;;;;;;;;;5071969;28;20449;-68
2022/07/01 04:44:31;;;;;;;59.20;3.20;;;;;;;;;;5071389;28;20512;-68
2022/07/01 04:47:04;;;;;;;59.07;3.13;;;;;;;;;;5071878;28;20470;-69
2022/07/01 04:49:32;;;;;;;59.20;3.40;;;;;;;;;;5071519;28;20837;-68
2022/07/01 04:52:00;;;;;;;59.30;3.10;;;;;;;;;;5071537;28;21028;-68
2022/07/01 04:54:27;;;;;;;59.27;3.40;;;;;;;;;;5071656;28;20543;-68
2022/07/01 04:56:55;;;;;;;60.00;3.00;;;;;;;;;;5071698;28;20450;-68
2022/07/01 04:59:22;;;;;;;59.00;3.20;;;;;;;;;;5071413;28;20454;-68
2022/07/01 05:01:53;;;;;;;59.37;3.47;;;;;;;;;;5071594;28;20530;-69
2022/07/01 05:04:26;;;;;;;58.67;3.07;;;;;;;;;;5070183;28;21026;-68
2022/07/01 05:06:53;;;;;;;58.67;2.90;;;;;;;;;;5071367;28;20461;-68
2022/07/01 05:09:23;;;;;;;59.30;3.20;;;;;;;;;;5067350;28;20455;-68
2022/07/01 05:11:51;;;;;;;59.20;3.00;;;;;;;;;;5071311;28;20484;-68
2022/07/01 05:14:18;;;;;;;59.40;3.37;;;;;;;;;;5071239;28;20549;-67
2022/07/01 05:16:45;;;;;;;60.00;3.40;;;;;;;;;;5071051;28;20968;-68
2022/07/01 05:22:01;;;;;;;59.10;3.20;;;;;;;;;;5071468;28;20567;-68
2022/07/01 05:24:30;;;;;;;59.60;3.60;;;;;;;;;;5071327;28;20470;-68
2022/07/01 05:26:57;;;;;;;58.80;3.00;;;;;;;;;;5071248;28;20508;-68
2022/07/01 05:29:25;;;;;;;58.87;3.20;;;;;;;;;;5071084;28;20450;-68
2022/07/01 05:31:52;;;;;;;59.30;3.50;;;;;;;;;;5071097;28;20490;-68
2022/07/01 05:34:21;;;;;;;59.40;3.33;;;;;;;;;;5071323;28;20466;-68
2022/07/01 05:36:49;;;;;;;59.27;3.40;;;;;;;;;;5071614;28;20455;-68
2022/07/01 05:39:18;;;;;;;59.00;3.20;;;;;;;;;;5071299;28;20541;-69
2022/07/01 05:41:47;;;;;;;59.37;3.47;;;;;;;;;;5071286;28;20823;-68
2022/07/01 05:44:15;;;;;;;60.50;3.57;;;;;;;;;;5069765;28;20931;-69
2022/07/01 05:46:42;;;;;;;58.73;3.13;;;;;;;;;;5070720;28;20462;-68
2022/07/01 05:49:10;;;;;;;59.93;3.40;;;;;;;;;;5074022;28;20447;-68
2022/07/01 05:51:39;;;;;;;60.03;3.87;;;;;;;;;;5074744;28;20483;-68
2022/07/01 05:54:06;;;;;;;59.10;3.63;;;;;;;;;;5074486;28;20466;-68
2022/07/01 05:56:35;;;;;;;61.10;3.60;;;;;;;;;;5074621;28;20451;-68
2022/07/01 05:59:02;;;;;;;60.77;3.30;;;;;;;;;;5069323;28;20476;-68
2022/07/01 06:01:30;;;;;;;59.77;3.73;;;;;;;;;;5074589;28;20454;-68
2022/07/01 06:03:57;;;;;;;59.30;3.20;;;;;;;;;;5074532;28;20493;-69
2022/07/01 06:06:25;;;;;;;59.13;3.00;;;;;;;;;;5074505;28;20443;-68
2022/07/01 06:08:53;;;;;;;60.37;3.47;;;;;;;;;;5074565;28;20447;-68
2022/07/01 06:11:23;;;;;;;58.87;3.13;;;;;;;;;;5074565;28;20847;-68
2022/07/01 06:13:50;;;;;;;59.50;3.50;;;;;;;;;;5074453;28;20474;-68
2022/07/01 06:16:17;;;;;;;59.23;3.57;;;;;;;;;;5074289;28;20449;-68
2022/07/01 06:18:46;;;;;;;59.67;3.30;;;;;;;;;;5074120;28;20458;-68
2022/07/01 06:21:14;;;;;;;60.47;3.80;;;;;;;;;;5074203;28;20948;-68
2022/07/01 06:23:42;;;;;;;63.70;3.80;;;;;;;;;;5073311;28;20553;-68
2022/07/01 06:26:12;;;;;;;59.27;3.13;;;;;;;;;;5074238;28;20956;-68
2022/07/01 06:28:40;;;;;;;59.17;3.17;;;;;;;;;;5074115;28;20447;-69
2022/07/01 06:31:11;;;;;;;59.00;3.10;;;;;;;;;;5073450;28;20850;-68
2022/07/01 06:33:38;;;;;;;59.20;3.60;;;;;;;;;;5073836;28;20990;-68
2022/07/01 06:36:06;;;;;;;59.43;3.47;;;;;;;;;;5070573;28;20448;-68
2022/07/01 06:38:33;;;;;;;59.40;3.33;;;;;;;;;;5053899;28;20815;-68
2022/07/01 06:43:47;;;;;;;59.20;3.17;;;;;;;;;;5053845;28;20959;-68
2022/07/01 06:46:15;;;;;;;59.17;3.47;;;;;;;;;;5053676;28;20498;-68
2022/07/01 06:48:42;;;;;;;58.97;3.30;;;;;;;;;;5053774;28;20869;-67
2022/07/01 06:51:10;;;;;;;58.73;3.20;;;;;;;;;;5057710;28;20451;-68
2022/07/01 06:53:37;;;;;;;59.50;3.20;;;;;;;;;;5073201;28;20483;-65
2022/07/01 06:56:06;;;;;;;58.77;3.03;;;;;;;;;;5073434;28;20443;-68
2022/07/01 06:58:33;;;;;;;58.67;2.77;;;;;;;;;;5072854;28;20490;-68
2022/07/01 07:01:02;;;;;;;59.20;3.20;;;;;;;;;;5073520;28;20431;-68
2022/07/01 07:03:30;;;;;;;58.97;3.00;;;;;;;;;;5073117;28;20854;-68
2022/07/01 07:05:59;;;;;;;59.17;3.33;;;;;;;;;;5073178;28;20443;-68
2022/07/01 07:08:28;;;;;;;58.97;3.00;;;;;;;;;;5072980;28;20577;-68
2022/07/01 07:10:56;;;;;;;59.20;3.10;;;;;;;;;;5073171;28;20447;-68
2022/07/01 07:13:31;;;;;;;59.97;3.17;;;;;;;;;;5072648;28;20995;-68
2022/07/01 07:15:58;;;;;;;58.90;3.03;;;;;;;;;;5073229;28;20454;-68
2022/07/01 07:18:29;;;;;;;59.40;3.20;;;;;;;;;;5072698;28;20446;-68
2022/07/01 07:20:56;;;;;;;58.67;3.00;;;;;;;;;;5073123;28;20533;-68
2022/07/01 07:23:25;;;;;;;58.60;3.07;;;;;;;;;;5072761;28;20466;-68
2022/07/01 07:25:52;;;;;;;58.60;3.00;;;;;;;;;;5072522;28;20884;-68
2022/07/01 07:28:21;;;;;;;58.47;2.77;;;;;;;;;;5072467;28;20450;-68
2022/07/01 07:30:50;;;;;;;59.07;3.20;;;;;;;;;;5072859;28;20447;-68
2022/07/01 07:33:17;;;;;;;58.90;3.27;;;;;;;;;;5070655;28;20491;-68
2022/07/01 07:35:47;;;;;;;58.57;2.93;;;;;;;;;;5072723;28;20443;-68
2022/07/01 07:38:14;;;;;;;60.07;3.10;;;;;;;;;;5072054;28;20448;-67
2022/07/01 07:40:43;;;;;;;58.87;2.80;;;;;;;;;;5072680;28;20504;-68
2022/07/01 07:43:10;;;;;;;60.20;3.30;;;;;;;;;;5072241;28;20852;-68
2022/07/01 07:45:37;;;;;;;59.00;3.20;;;;;;;;;;5072472;28;20827;-67
2022/07/01 07:48:05;;;;;;;58.53;2.80;;;;;;;;;;5072269;28;20451;-68
2022/07/01 07:50:33;;;;;;;58.97;3.00;;;;;;;;;;5072324;28;20454;-68
2022/07/01 07:53:01;;;;;;;59.10;3.10;;;;;;;;;;5072023;28;20487;-68
2022/07/01 07:55:31;;;;;;;58.67;2.80;;;;;;;;;;5072342;28;20450;-67
2022/07/01 07:57:58;;;;;;;59.10;3.50;;;;;;;;;;5071880;28;20455;-68
2022/07/01 08:00:28;;;;;;;58.37;2.93;;;;;;;;;;5072196;28;20455;-67
2022/07/01 08:02:55;;;;;;;59.90;3.07;;;;;;;;;;5071945;28;20466;-67
2022/07/01 08:05:24;;;;;;;59.10;3.40;;;;;;;;;;5070258;28;20467;-68
2022/07/01 08:07:55;;;;;;;58.83;3.20;;;;;;;;;;5071976;28;20444;-68
2022/07/01 08:10:26;;;;;;;58.83;3.10;;;;;;;;;;5071791;28;20450;-68
2022/07/01 08:12:53;;;;;;;58.80;3.17;;;;;;;;;;5071536;28;20574;-67
2022/07/01 08:15:20;;;;;;;59.10;3.00;;;;;;;;;;5072048;28;20497;-67
2022/07/01 08:17:48;;;;;;;60.57;3.50;;;;;;;;;;5071477;28;20451;-68
2022/07/01 08:20:18;;;;;;;58.80;3.20;;;;;;;;;;5072072;28;20538;-68
2022/07/01 08:22:45;;;;;;;60.67;3.03;;;;;;;;;;5071821;28;20471;-67
2022/07/01 08:25:15;;;;;;;58.80;3.00;;;;;;;;;;5071941;28;20451;-67
2022/07/01 08:27:43;;;;;;;59.40;3.40;;;;;;;;;;5070309;28;20538;-66
2022/07/01 08:30:12;;;;;;;58.97;3.20;;;;;;;;;;5071661;28;20569;-68
2022/07/01 08:32:39;;;;;;;59.70;3.30;;;;;;;;;;5071450;28;20490;-68
2022/07/01 08:35:07;;;;;;;58.90;3.10;;;;;;;;;;5071750;28;20443;-67
2022/07/01 08:37:34;;;;;;;58.40;3.20;;;;;;;;;;5069366;28;20534;-67
2022/07/01 08:40:01;;;;;;;60.07;3.80;;;;;;;;;;5071575;28;20459;-68
2022/07/01 08:42:29;;;;;;;59.17;3.60;;;;;;;;;;5071838;28;20452;-67
2022/07/01 08:44:58;;;;;;;59.30;3.50;;;;;;;;;;5071349;28;20456;-67
2022/07/01 08:47:26;;;;;;;60.17;3.60;;;;;;;;;;5071212;28;20458;-68
2022/07/01 08:49:54;;;;;;;59.00;3.10;;;;;;;;;;5071531;28;20801;-67
2022/07/01 08:52:25;;;;;;;58.87;3.27;;;;;;;;;;5069948;28;21015;-67
2022/07/01 08:54:52;;;;;;;59.00;3.10;;;;;;;;;;5071756;28;20454;-67
2022/07/01 08:57:22;;;;;;;58.60;3.17;;;;;;;;;;5071065;28;20466;-67
2022/07/01 09:00:07;;;;;;;58.90;3.10;;;;;;;;;;5071427;28;20446;-67
2022/07/01 09:02:55;;;;;;;59.40;3.63;;;;;;;;;;5071336;28;20466;-67
2022/07/01 09:05:23;;;;;;;58.87;3.37;;;;;;;;;;5071394;28;20986;-67
2022/07/01 09:07:51;;;;;;;61.70;3.17;;;;;;;;;;5070766;28;20445;-68
2022/07/01 09:10:19;;;;;;;59.10;3.47;;;;;;;;;;5069003;28;20447;-67
2022/07/01 09:12:47;;;;;;;58.90;2.90;;;;;;;;;;5071188;28;20494;-67
2022/07/01 09:15:32;;;;;;;59.07;3.20;;;;;;;;;;5069856;28;20483;-68
2022/07/01 09:18:06;;;;;;;58.90;3.30;;;;;;;;;;5070974;28;20439;-67
2022/07/01 09:20:34;;;;;;;59.47;3.30;;;;;;;;;;5071137;28;20470;-67
2022/07/01 09:23:04;;;;;;;59.03;3.30;;;;;;;;;;5074279;28;21001;-66
2022/07/01 09:25:33;;;;;;;61.00;3.87;;;;;;;;;;5075368;28;20450;-67
2022/07/01 09:28:06;;;;;;;59.20;3.57;;;;;;;;;;5074874;28;20486;-67
2022/07/01 09:30:34;;;;;;;59.17;3.63;;;;;;;;;;5074947;28;20454;-68
2022/07/01 09:33:09;;;;;;;59.20;3.10;;;;;;;;;;5074718;28;20491;-68
2022/07/01 09:35:38;;;;;;;59.53;3.80;;;;;;;;;;5075165;28;20453;-68
2022/07/01 09:38:07;;;;;;;59.40;3.50;;;;;;;;;;5074366;28;20458;-69
2022/07/01 09:40:47;;;;;;;62.03;3.37;;;;;;;;;;5074440;28;20464;-68
2022/07/01 09:43:18;;;;;;;59.50;3.80;;;;;;;;;;5073833;28;20466;-68
2022/07/01 09:45:55;;;;;;;59.37;3.40;;;;;;;;;;5075318;28;20531;-69
2022/07/01 09:48:25;;;;;;;59.60;3.50;;;;;;;;;;5071835;28;20453;-68
2022/07/01 09:50:56;;;;;;;59.60;3.70;;;;;;;;;;5074530;28;20767;-68
2022/07/01 09:53:25;;;;;;;59.70;3.23;;;;;;;;;;5074370;28;20493;-69
2022/07/01 09:55:53;;;;;;;59.27;3.40;;;;;;;;;;5074288;28;20554;-68
2022/07/01 09:58:20;;;;;;;61.20;4.43;;;;;;;;;;5074441;28;20786;-68
2022/07/01 10:00:48;;;;;;;59.07;3.40;;;;;;;;;;5074654;28;20451;-68
2022/07/01 10:03:15;;;;;;;59.07;3.23;;;;;;;;;;5074510;28;20830;-67
2022/07/01 10:05:47;;;;;;;59.63;3.37;;;;;;;;;;5074429;28;20454;-66
2022/07/01 10:08:27;;;;;;;60.77;4.20;;;;;;;;;;5074105;28;20473;-67
2022/07/01 10:11:12;;;;;;;59.90;3.57;;;;;;;;;;5074173;28;20486;-67
2022/07/01 10:13:41;;;;;;;60.50;3.93;;;;;;;;;;5074326;28;20483;-66
2022/07/01 10:16:10;;;;;;;59.00;3.43;;;;;;;;;;5074140;28;20457;-66
2022/07/01 10:18:38;;;;;;;59.30;3.70;;;;;;;;;;5074011;28;20449;-66
2022/07/01 10:21:06;;;;;;;59.10;3.60;;;;;;;;;;5072635;28;20458;-67
2022/07/01 10:23:39;;;;;;;59.50;3.30;;;;;;;;;;5073981;28;20467;-68
2022/07/01 10:26:10;;;;;;;59.77;4.00;;;;;;;;;;5074002;28;20482;-67
2022/07/01 10:28:48;;;;;;;59.10;3.57;;;;;;;;;;5073088;28;20508;-66
2022/07/01 10:31:16;;;;;;;60.57;3.90;;;;;;;;;;5073786;28;20485;-66
2022/07/01 10:33:45;;;;;;;59.20;3.30;;;;;;;;;;5073131;28;20484;-66
2022/07/01 10:36:16;;;;;;;59.03;3.27;;;;;;;;;;5073723;28;20543;-67
2022/07/01 10:39:22;;;;;;;59.70;3.77;;;;;;;;;;5073706;28;20449;-66
2022/07/01 10:42:03;;;;;;;59.60;3.37;;;;;;;;;;5011660;28;20541;-66
2022/07/01 10:44:35;;;;;;;60.77;3.60;;;;;;;;;;5011426;28;20539;-66
2022/07/01 10:47:08;;;;;;;58.80;3.23;;;;;;;;;;5011679;28;20530;-67
2022/07/01 10:49:53;;;;;;;59.43;3.30;;;;;;;;;;5011955;28;20488;-66
2022/07/01 10:52:23;;;;;;;59.50;3.47;;;;;;;;;;5011513;28;20482;-66
2022/07/01 10:54:53;;;;;;;58.80;2.97;;;;;;;;;;5009342;28;20489;-66
2022/07/01 10:57:22;;;;;;;58.90;2.87;;;;;;;;;;5011148;28;20465;-66
2022/07/01 10:59:50;;;;;;;58.80;2.93;;;;;;;;;;5011352;28;20955;-66
2022/07/01 11:02:21;;;;;;;58.80;2.80;;;;;;;;;;5010914;28;20479;-66
2022/07/01 11:04:48;;;;;;;58.30;2.57;;;;;;;;;;5011271;28;20468;-66
2022/07/01 11:07:16;;;;;;;59.30;2.70;;;;;;;;;;5010752;28;20453;-66
2022/07/01 11:09:45;;;;;;;58.87;2.83;;;;;;;;;;5010401;28;20577;-68
2022/07/01 11:12:12;;;;;;;58.57;2.67;;;;;;;;;;5030075;28;20451;-67
2022/07/01 11:14:41;;;;;;;58.50;2.80;;;;;;;;;;5073005;28;20572;-66
2022/07/01 11:17:09;;;;;;;58.67;2.40;;;;;;;;;;5072425;28;20999;-66
2022/07/01 11:19:37;;;;;;;60.30;2.87;;;;;;;;;;5073154;28;20447;-67
2022/07/01 11:22:05;;;;;;;58.90;2.80;;;;;;;;;;5073162;28;20447;-67
2022/07/01 11:24:33;;;;;;;59.67;2.60;;;;;;;;;;5071523;28;20551;-66
2022/07/01 11:27:09;;;;;;;59.70;2.60;;;;;;;;;;5070241;28;20534;-67
2022/07/01 11:29:36;;;;;;;58.20;2.50;;;;;;;;;;5072714;28;20542;-67
2022/07/01 11:32:04;;;;;;;58.23;2.57;;;;;;;;;;5072825;28;20436;-66
2022/07/01 11:34:32;;;;;;;58.73;2.60;;;;;;;;;;5072364;28;20881;-67
2022/07/01 11:39:44;;;;;;;58.30;2.50;;;;;;;;;;5072638;28;20669;-67
2022/07/01 11:42:14;;;;;;;58.40;2.40;;;;;;;;;;5072417;28;20450;-67
2022/07/01 11:44:42;;;;;;;58.20;2.50;;;;;;;;;;5071964;28;20456;-66
2022/07/01 11:47:12;;;;;;;57.87;2.07;;;;;;;;;;5071819;28;20534;-66
2022/07/01 11:49:45;;;;;;;58.17;2.30;;;;;;;;;;5072494;28;20451;-67
2022/07/01 11:52:13;;;;;;;58.47;2.30;;;;;;;;;;5072491;28;20451;-66
2022/07/01 11:54:41;;;;;;;58.50;2.40;;;;;;;;;;5071867;28;20485;-66
2022/07/01 11:57:10;;;;;;;59.20;2.27;;;;;;;;;;5072042;28;20451;-66
2022/07/01 11:59:39;;;;;;;58.40;2.37;;;;;;;;;;5070685;28;20492;-67
2022/07/01 12:02:08;;;;;;;59.23;2.63;;;;;;;;;;5071866;28;20902;-67
2022/07/01 12:04:36;;;;;;;58.50;2.40;;;;;;;;;;5070816;28;20460;-67
2022/07/01 12:07:04;;;;;;;58.50;2.13;;;;;;;;;;5071893;28;20452;-67
2022/07/01 12:09:34;;;;;;;58.30;2.33;;;;;;;;;;5071676;28;20452;-67
2022/07/01 12:12:02;;;;;;;58.10;2.40;;;;;;;;;;5072208;28;20457;-67
2022/07/01 12:14:30;;;;;;;58.30;2.33;;;;;;;;;;5071953;28;20488;-66
2022/07/01 12:17:00;;;;;;;59.30;2.33;;;;;;;;;;5071826;28;20486;-67
2022/07/01 12:19:29;;;;;;;59.57;2.33;;;;;;;;;;5071585;28;20432;-67
2022/07/01 12:21:58;;;;;;;58.37;2.40;;;;;;;;;;5071532;28;20449;-67
2022/07/01 12:24:28;;;;;;;58.10;2.33;;;;;;;;;;5071581;28;20466;-67
2022/07/01 12:27:03;;;;;;;58.10;2.30;;;;;;;;;;5071766;28;20871;-67
2022/07/01 12:29:31;;;;;;;60.27;2.83;;;;;;;;;;5071689;28;20562;-66
2022/07/01 12:32:02;;;;;;;58.53;2.63;;;;;;;;;;5069204;28;20807;-66
2022/07/01 12:34:39;;;;;;;57.97;2.67;;;;;;;;;;5071618;28;20483;-66
2022/07/01 12:37:13;;;;;;;58.37;2.40;;;;;;;;;;5070993;28;20451;-68
2022/07/01 12:39:48;;;;;;;59.90;2.43;;;;;;;;;;5071799;28;20901;-66
2022/07/01 12:42:27;;;;;;;58.07;2.30;;;;;;;;;;5071316;28;20447;-66
2022/07/01 12:44:55;;;;;;;59.30;2.87;;;;;;;;;;5071520;28;20465;-67
2022/07/01 12:47:28;;;;;;;58.90;2.50;;;;;;;;;;5071155;28;20534;-67
2022/07/01 12:50:14;;;;;;;58.60;2.40;;;;;;;;;;5071965;28;20470;-67
2022/07/01 12:53:01;;;;;;;58.30;2.40;;;;;;;;;;5071105;28;20503;-67
2022/07/01 12:55:32;;;;;;;59.27;2.23;;;;;;;;;;5071228;28;21022;-67
2022/07/01 12:58:00;;;;;;;58.50;2.87;;;;;;;;;;5071175;28;20461;-66
2022/07/01 13:00:31;;;;;;;59.13;2.50;;;;;;;;;;5071479;28;20452;-67
2022/07/01 13:03:02;;;;;;;60.47;2.80;;;;;;;;;;5071403;28;20506;-66
2022/07/01 13:05:33;;;;;;;58.10;2.50;;;;;;;;;;5069160;28;20543;-66
2022/07/01 13:08:00;;;;;;;58.47;2.70;;;;;;;;;;5071242;28;20509;-66
2022/07/01 13:10:27;;;;;;;58.47;2.50;;;;;;;;;;5071296;28;21022;-66
2022/07/01 13:12:56;;;;;;;58.47;2.70;;;;;;;;;;5071237;28;20470;-66
2022/07/01 13:15:24;;;;;;;58.67;2.80;;;;;;;;;;5070931;28;20509;-66
2022/07/01 13:17:53;;;;;;;58.83;2.20;;;;;;;;;;5070693;28;20443;-66
2022/07/01 13:20:22;;;;;;;58.50;2.83;;;;;;;;;;5071187;28;20951;-66
2022/07/01 13:22:50;;;;;;;58.47;2.60;;;;;;;;;;5069830;28;20468;-66
2022/07/01 13:25:17;;;;;;;57.87;2.40;;;;;;;;;;5071343;28;20888;-66
2022/07/01 13:27:45;;;;;;;60.40;2.50;;;;;;;;;;5070995;28;20443;-66
2022/07/01 13:30:12;;;;;;;60.00;2.50;;;;;;;;;;5071205;28;20451;-66
2022/07/01 13:32:52;;;;;;;57.97;2.30;;;;;;;;;;5071200;28;20477;-66
2022/07/01 13:35:24;;;;;;;59.00;2.60;;;;;;;;;;5070886;28;20498;-66
2022/07/01 13:37:59;;;;;;;58.40;2.23;;;;;;;;;;5068411;28;20461;-67
2022/07/01 13:40:27;;;;;;;59.33;2.50;;;;;;;;;;5071062;28;20984;-67
2022/07/01 13:42:55;;;;;;;58.40;2.30;;;;;;;;;;5070719;28;20469;-66
2022/07/01 13:45:22;;;;;;;59.77;2.50;;;;;;;;;;5070860;28;20459;-67
2022/07/01 13:47:50;;;;;;;58.37;2.70;;;;;;;;;;5070710;28;20451;-67
2022/07/01 13:50:19;;;;;;;57.87;2.70;;;;;;;;;;5071283;28;20461;-67
2022/07/01 13:52:51;;;;;;;58.70;2.43;;;;;;;;;;5070632;28;20502;-66
2022/07/01 13:55:21;;;;;;;58.40;2.50;;;;;;;;;;5070478;28;20479;-66
2022/07/01 13:57:50;;;;;;;58.27;2.50;;;;;;;;;;5070309;28;20438;-67
2022/07/01 14:00:18;;;;;;;61.07;2.90;;;;;;;;;;5070996;28;20447;-67
2022/07/01 14:02:46;;;;;;;58.27;2.87;;;;;;;;;;5070592;28;20467;-66
2022/07/01 14:05:14;;;;;;;61.80;2.60;;;;;;;;;;5069398;28;20532;-66
2022/07/01 14:07:42;;;;;;;58.43;2.60;;;;;;;;;;5070808;28;20450;-66
2022/07/01 14:10:12;;;;;;;58.90;2.80;;;;;;;;;;5071276;28;20458;-66
2022/07/01 14:12:40;;;;;;;58.37;2.43;;;;;;;;;;5074183;28;20467;-66
2022/07/01 14:15:22;;;;;;;58.30;2.50;;;;;;;;;;5074203;28;20556;-66
2022/07/01 14:17:49;;;;;;;58.03;2.30;;;;;;;;;;5073444;28;20538;-66
2022/07/01 14:20:17;;;;;;;57.63;2.30;;;;;;;;;;5073536;28;20451;-66
2022/07/01 14:22:44;;;;;;;59.40;2.67;;;;;;;;;;5074121;28;20468;-66
2022/07/01 14:25:13;;;;;;;58.80;2.60;;;;;;;;;;5074120;28;20815;-67
2022/07/01 14:27:40;;;;;;;58.43;2.53;;;;;;;;;;5073829;28;20537;-66
2022/07/01 14:30:09;;;;;;;57.97;2.13;;;;;;;;;;5074011;28;20562;-67
2022/07/01 14:32:37;;;;;;;58.97;2.40;;;;;;;;;;5073746;28;20470;-67
2022/07/01 14:35:05;;;;;;;58.30;2.10;;;;;;;;;;5073556;28;20907;-67
2022/07/01 14:37:36;;;;;;;58.17;2.23;;;;;;;;;;5073549;28;20458;-67
2022/07/01 14:40:04;;;;;;;58.40;2.47;;;;;;;;;;5072581;28;20489;-67
2022/07/01 14:42:33;;;;;;;58.37;2.50;;;;;;;;;;5071245;28;20453;-67
2022/07/01 14:45:06;;;;;;;58.10;2.33;;;;;;;;;;5073357;28;20525;-67
2022/07/01 14:47:33;;;;;;;58.77;2.30;;;;;;;;;;5073021;28;20571;-67
2022/07/01 14:50:00;;;;;;;57.87;2.20;;;;;;;;;;5072593;28;20443;-67
2022/07/01 14:52:29;;;;;;;57.77;2.20;;;;;;;;;;5072305;28;20451;-67
2022/07/01 14:54:57;;;;;;;57.67;2.20;;;;;;;;;;5073202;28;20518;-67
2022/07/01 14:57:25;;;;;;;59.50;2.27;;;;;;;;;;5073195;28;20593;-67